sensor_id;sensor_type;location;lat;lon;timestamp;P1;durP1;ratioP1;P2;durP2;ratioP2
16862;SDS011;52193;48.216;-1.698;2022-12-10T00:01:02;43.70;;;35.78;;
16862;SDS011;52193;48.216;-1.698;2022-12-10T00:03:31;41.25;;;34.13;;
16862;SDS011;52193;48.216;-1.698;2022-12-10T00:05:59;45.17;;;37.33;;
16862;SDS011;52193;48.216;-1.698;2022-12-10T00:08:27;44.03;;;37.70;;
16862;SDS011;52193;48.216;-1.698;2022-12-10T00:10:54;43.42;;;38.45;;
16862;SDS011;52193;48.216;-1.698;2022-12-10T00:13:21;45.35;;;38.40;;
16862;SDS011;52193;48.216;-1.698;2022-12-10T00:15:49;42.92;;;38.17;;
16862;SDS011;52193;48.216;-1.698;2022-12-10T00:18:15;43.17;;;36.25;;
16862;SDS011;52193;48.216;-1.698;2022-12-10T00:20:44;36.22;;;32.38;;
16862;SDS011;52193;48.216;-1.698;2022-12-10T00:23:11;37.20;;;31.90;;
16862;SDS011;52193;48.216;-1.698;2022-12-10T00:25:38;33.58;;;29.90;;
16862;SDS011;52193;48.216;-1.698;2022-12-10T00:28:05;34.15;;;23.88;;
16862;SDS011;52193;48.216;-1.698;2022-12-10T00:30:32;28.70;;;21.38;;
16862;SDS011;52193;48.216;-1.698;2022-12-10T00:32:59;30.30;;;20.98;;
16862;SDS011;52193;48.216;-1.698;2022-12-10T00:35:26;29.60;;;22.52;;
16862;SDS011;52193;48.216;-1.698;2022-12-10T00:37:54;34.80;;;26.20;;
16862;SDS011;52193;48.216;-1.698;2022-12-10T00:40:21;35.97;;;28.15;;
16862;SDS011;52193;48.216;-1.698;2022-12-10T00:42:49;35.03;;;29.03;;
16862;SDS011;52193;48.216;-1.698;2022-12-10T00:45:16;35.22;;;27.45;;
16862;SDS011;52193;48.216;-1.698;2022-12-10T00:47:43;37.40;;;27.02;;
16862;SDS011;52193;48.216;-1.698;2022-12-10T00:50:10;35.65;;;26.92;;
16862;SDS011;52193;48.216;-1.698;2022-12-10T00:52:37;37.08;;;27.23;;
16862;SDS011;52193;48.216;-1.698;2022-12-10T00:55:06;28.83;;;24.45;;
16862;SDS011;52193;48.216;-1.698;2022-12-10T00:57:33;28.25;;;23.35;;
16862;SDS011;52193;48.216;-1.698;2022-12-10T01:00:00;29.27;;;23.80;;
16862;SDS011;52193;48.216;-1.698;2022-12-10T01:02:27;31.83;;;25.40;;
16862;SDS011;52193;48.216;-1.698;2022-12-10T01:04:54;35.83;;;26.40;;
16862;SDS011;52193;48.216;-1.698;2022-12-10T01:07:21;34.63;;;25.92;;
16862;SDS011;52193;48.216;-1.698;2022-12-10T01:09:48;25.67;;;20.83;;
16862;SDS011;52193;48.216;-1.698;2022-12-10T01:12:16;21.30;;;17.65;;
16862;SDS011;52193;48.216;-1.698;2022-12-10T01:14:43;23.30;;;18.17;;
16862;SDS011;52193;48.216;-1.698;2022-12-10T01:17:10;22.33;;;20.33;;
16862;SDS011;52193;48.216;-1.698;2022-12-10T01:19:37;21.65;;;19.83;;
16862;SDS011;52193;48.216;-1.698;2022-12-10T01:22:04;21.90;;;19.90;;
16862;SDS011;52193;48.216;-1.698;2022-12-10T01:24:31;21.33;;;19.50;;
16862;SDS011;52193;48.216;-1.698;2022-12-10T01:26:59;20.58;;;18.77;;
16862;SDS011;52193;48.216;-1.698;2022-12-10T01:29:27;19.93;;;18.23;;
16862;SDS011;52193;48.216;-1.698;2022-12-10T01:31:55;18.67;;;17.10;;
16862;SDS011;52193;48.216;-1.698;2022-12-10T01:34:23;20.35;;;18.65;;
16862;SDS011;52193;48.216;-1.698;2022-12-10T01:36:52;22.13;;;20.23;;
16862;SDS011;52193;48.216;-1.698;2022-12-10T01:39:20;24.05;;;21.88;;
16862;SDS011;52193;48.216;-1.698;2022-12-10T01:41:49;25.40;;;23.10;;
16862;SDS011;52193;48.216;-1.698;2022-12-10T01:47:25;21.50;;;19.65;;
16862;SDS011;52193;48.216;-1.698;2022-12-10T01:49:52;24.40;;;22.07;;
16862;SDS011;52193;48.216;-1.698;2022-12-10T01:52:20;21.85;;;20.05;;
16862;SDS011;52193;48.216;-1.698;2022-12-10T01:54:47;20.45;;;18.77;;
16862;SDS011;52193;48.216;-1.698;2022-12-10T01:57:14;21.30;;;19.48;;
16862;SDS011;52193;48.216;-1.698;2022-12-10T01:59:43;20.70;;;18.80;;
16862;SDS011;52193;48.216;-1.698;2022-12-10T02:02:17;20.30;;;18.58;;
16862;SDS011;52193;48.216;-1.698;2022-12-10T02:04:55;21.20;;;19.30;;
16862;SDS011;52193;48.216;-1.698;2022-12-10T02:07:32;21.35;;;19.45;;
16862;SDS011;52193;48.216;-1.698;2022-12-10T02:10:08;20.40;;;18.70;;
16862;SDS011;52193;48.216;-1.698;2022-12-10T02:12:51;19.83;;;18.23;;
16862;SDS011;52193;48.216;-1.698;2022-12-10T02:15:24;19.58;;;17.98;;
16862;SDS011;52193;48.216;-1.698;2022-12-10T02:17:56;18.88;;;17.17;;
16862;SDS011;52193;48.216;-1.698;2022-12-10T02:20:26;17.85;;;16.35;;
16862;SDS011;52193;48.216;-1.698;2022-12-10T02:22:59;18.33;;;16.83;;
16862;SDS011;52193;48.216;-1.698;2022-12-10T02:25:32;18.92;;;17.33;;
16862;SDS011;52193;48.216;-1.698;2022-12-10T02:28:04;18.90;;;17.38;;
16862;SDS011;52193;48.216;-1.698;2022-12-10T02:30:38;20.63;;;18.88;;
16862;SDS011;52193;48.216;-1.698;2022-12-10T02:33:06;20.13;;;18.37;;
16862;SDS011;52193;48.216;-1.698;2022-12-10T02:35:35;17.75;;;16.35;;
16862;SDS011;52193;48.216;-1.698;2022-12-10T02:38:07;18.42;;;16.92;;
16862;SDS011;52193;48.216;-1.698;2022-12-10T02:40:36;22.30;;;20.30;;
16862;SDS011;52193;48.216;-1.698;2022-12-10T02:43:05;24.10;;;21.88;;
16862;SDS011;52193;48.216;-1.698;2022-12-10T02:45:33;24.45;;;22.25;;
16862;SDS011;52193;48.216;-1.698;2022-12-10T02:48:03;20.73;;;18.88;;
16862;SDS011;52193;48.216;-1.698;2022-12-10T02:50:31;19.35;;;17.55;;
16862;SDS011;52193;48.216;-1.698;2022-12-10T02:52:59;19.75;;;18.05;;
16862;SDS011;52193;48.216;-1.698;2022-12-10T02:55:26;22.77;;;20.65;;
16862;SDS011;52193;48.216;-1.698;2022-12-10T02:58:03;25.40;;;23.10;;
16862;SDS011;52193;48.216;-1.698;2022-12-10T03:00:41;27.13;;;24.53;;
16862;SDS011;52193;48.216;-1.698;2022-12-10T03:03:18;26.93;;;24.43;;
16862;SDS011;52193;48.216;-1.698;2022-12-10T03:05:55;19.00;;;17.48;;
16862;SDS011;52193;48.216;-1.698;2022-12-10T03:08:27;16.23;;;14.93;;
16862;SDS011;52193;48.216;-1.698;2022-12-10T03:11:01;14.68;;;13.57;;
16862;SDS011;52193;48.216;-1.698;2022-12-10T03:13:35;15.32;;;14.13;;
16862;SDS011;52193;48.216;-1.698;2022-12-10T03:16:07;17.08;;;15.60;;
16862;SDS011;52193;48.216;-1.698;2022-12-10T03:18:37;21.98;;;19.88;;
16862;SDS011;52193;48.216;-1.698;2022-12-10T03:21:05;23.05;;;21.05;;
16862;SDS011;52193;48.216;-1.698;2022-12-10T03:23:35;22.63;;;20.63;;
16862;SDS011;52193;48.216;-1.698;2022-12-10T03:26:05;23.70;;;21.40;;
16862;SDS011;52193;48.216;-1.698;2022-12-10T03:28:35;23.38;;;21.27;;
16862;SDS011;52193;48.216;-1.698;2022-12-10T03:31:07;22.02;;;20.02;;
16862;SDS011;52193;48.216;-1.698;2022-12-10T03:33:37;23.37;;;21.27;;
16862;SDS011;52193;48.216;-1.698;2022-12-10T03:36:05;24.17;;;22.00;;
16862;SDS011;52193;48.216;-1.698;2022-12-10T03:38:34;23.55;;;21.45;;
16862;SDS011;52193;48.216;-1.698;2022-12-10T03:41:02;21.95;;;20.05;;
16862;SDS011;52193;48.216;-1.698;2022-12-10T03:43:29;25.05;;;22.75;;
16862;SDS011;52193;48.216;-1.698;2022-12-10T03:45:56;27.00;;;24.33;;
16862;SDS011;52193;48.216;-1.698;2022-12-10T03:48:23;28.75;;;25.85;;
16862;SDS011;52193;48.216;-1.698;2022-12-10T03:50:52;28.97;;;26.27;;
16862;SDS011;52193;48.216;-1.698;2022-12-10T03:53:19;27.65;;;24.98;;
16862;SDS011;52193;48.216;-1.698;2022-12-10T03:55:46;26.37;;;23.77;;
16862;SDS011;52193;48.216;-1.698;2022-12-10T03:58:13;25.55;;;23.17;;
16862;SDS011;52193;48.216;-1.698;2022-12-10T04:00:40;24.48;;;22.27;;
16862;SDS011;52193;48.216;-1.698;2022-12-10T04:03:07;26.17;;;23.55;;
16862;SDS011;52193;48.216;-1.698;2022-12-10T04:05:33;23.85;;;21.48;;
16862;SDS011;52193;48.216;-1.698;2022-12-10T04:08:04;20.88;;;19.13;;
16862;SDS011;52193;48.216;-1.698;2022-12-10T04:10:34;20.90;;;19.05;;
16862;SDS011;52193;48.216;-1.698;2022-12-10T04:13:01;20.17;;;18.52;;
16862;SDS011;52193;48.216;-1.698;2022-12-10T04:15:46;19.83;;;18.20;;
16862;SDS011;52193;48.216;-1.698;2022-12-10T04:18:30;19.53;;;17.73;;
16862;SDS011;52193;48.216;-1.698;2022-12-10T04:20:57;19.23;;;17.63;;
16862;SDS011;52193;48.216;-1.698;2022-12-10T04:23:43;16.88;;;15.48;;
16862;SDS011;52193;48.216;-1.698;2022-12-10T04:26:29;12.43;;;10.32;;
16862;SDS011;52193;48.216;-1.698;2022-12-10T04:29:25;12.23;;;10.07;;
16862;SDS011;52193;48.216;-1.698;2022-12-10T04:31:55;14.30;;;12.80;;
16862;SDS011;52193;48.216;-1.698;2022-12-10T04:34:23;13.63;;;11.17;;
16862;SDS011;52193;48.216;-1.698;2022-12-10T04:36:50;15.43;;;11.38;;
16862;SDS011;52193;48.216;-1.698;2022-12-10T04:39:19;14.73;;;13.63;;
16862;SDS011;52193;48.216;-1.698;2022-12-10T04:41:47;15.77;;;14.48;;
16862;SDS011;52193;48.216;-1.698;2022-12-10T04:44:15;17.85;;;16.38;;
16862;SDS011;52193;48.216;-1.698;2022-12-10T04:46:42;18.00;;;16.40;;
16862;SDS011;52193;48.216;-1.698;2022-12-10T04:49:10;18.67;;;17.10;;
16862;SDS011;52193;48.216;-1.698;2022-12-10T04:51:37;19.33;;;17.67;;
16862;SDS011;52193;48.216;-1.698;2022-12-10T04:54:05;18.45;;;16.75;;
16862;SDS011;52193;48.216;-1.698;2022-12-10T04:56:33;17.58;;;16.08;;
16862;SDS011;52193;48.216;-1.698;2022-12-10T04:59:01;18.60;;;17.10;;
16862;SDS011;52193;48.216;-1.698;2022-12-10T05:01:29;19.20;;;17.50;;
16862;SDS011;52193;48.216;-1.698;2022-12-10T05:03:57;19.02;;;17.42;;
16862;SDS011;52193;48.216;-1.698;2022-12-10T05:06:25;19.33;;;17.70;;
16862;SDS011;52193;48.216;-1.698;2022-12-10T05:08:53;19.20;;;17.60;;
16862;SDS011;52193;48.216;-1.698;2022-12-10T05:11:21;16.97;;;15.57;;
16862;SDS011;52193;48.216;-1.698;2022-12-10T05:13:51;18.07;;;16.57;;
16862;SDS011;52193;48.216;-1.698;2022-12-10T05:16:19;18.30;;;16.90;;
16862;SDS011;52193;48.216;-1.698;2022-12-10T05:18:48;18.67;;;17.27;;
16862;SDS011;52193;48.216;-1.698;2022-12-10T05:21:15;18.17;;;16.70;;
16862;SDS011;52193;48.216;-1.698;2022-12-10T05:23:44;17.95;;;16.55;;
16862;SDS011;52193;48.216;-1.698;2022-12-10T05:26:13;17.73;;;16.30;;
16862;SDS011;52193;48.216;-1.698;2022-12-10T05:28:42;17.02;;;15.73;;
16862;SDS011;52193;48.216;-1.698;2022-12-10T05:31:15;16.73;;;15.43;;
16862;SDS011;52193;48.216;-1.698;2022-12-10T05:33:43;16.60;;;15.30;;
16862;SDS011;52193;48.216;-1.698;2022-12-10T05:36:11;16.35;;;15.05;;
16862;SDS011;52193;48.216;-1.698;2022-12-10T05:38:40;16.93;;;15.60;;
16862;SDS011;52193;48.216;-1.698;2022-12-10T05:41:08;16.48;;;15.13;;
16862;SDS011;52193;48.216;-1.698;2022-12-10T05:43:37;16.70;;;15.40;;
16862;SDS011;52193;48.216;-1.698;2022-12-10T05:46:04;18.52;;;17.05;;
16862;SDS011;52193;48.216;-1.698;2022-12-10T05:48:34;19.52;;;17.92;;
16862;SDS011;52193;48.216;-1.698;2022-12-10T05:51:03;20.05;;;18.42;;
16862;SDS011;52193;48.216;-1.698;2022-12-10T05:53:30;19.30;;;17.70;;
16862;SDS011;52193;48.216;-1.698;2022-12-10T05:56:00;18.88;;;17.20;;
16862;SDS011;52193;48.216;-1.698;2022-12-10T05:58:28;17.73;;;16.23;;
16862;SDS011;52193;48.216;-1.698;2022-12-10T06:00:55;17.60;;;16.10;;
16862;SDS011;52193;48.216;-1.698;2022-12-10T06:03:22;17.35;;;15.85;;
16862;SDS011;52193;48.216;-1.698;2022-12-10T06:05:51;16.48;;;15.10;;
16862;SDS011;52193;48.216;-1.698;2022-12-10T06:08:18;16.58;;;15.27;;
16862;SDS011;52193;48.216;-1.698;2022-12-10T06:10:45;15.73;;;14.52;;
16862;SDS011;52193;48.216;-1.698;2022-12-10T06:13:12;15.98;;;14.77;;
16862;SDS011;52193;48.216;-1.698;2022-12-10T06:15:39;16.38;;;15.10;;
16862;SDS011;52193;48.216;-1.698;2022-12-10T06:18:07;16.20;;;15.00;;
16862;SDS011;52193;48.216;-1.698;2022-12-10T06:20:37;16.00;;;14.88;;
16862;SDS011;52193;48.216;-1.698;2022-12-10T06:23:06;16.52;;;15.18;;
16862;SDS011;52193;48.216;-1.698;2022-12-10T06:25:33;16.48;;;15.27;;
16862;SDS011;52193;48.216;-1.698;2022-12-10T06:28:00;16.65;;;15.35;;
16862;SDS011;52193;48.216;-1.698;2022-12-10T06:30:27;16.00;;;14.80;;
16862;SDS011;52193;48.216;-1.698;2022-12-10T06:32:54;15.93;;;14.80;;
16862;SDS011;52193;48.216;-1.698;2022-12-10T06:35:21;15.30;;;14.15;;
16862;SDS011;52193;48.216;-1.698;2022-12-10T06:37:49;16.30;;;14.90;;
16862;SDS011;52193;48.216;-1.698;2022-12-10T06:40:17;16.30;;;14.98;;
16862;SDS011;52193;48.216;-1.698;2022-12-10T06:42:44;15.75;;;14.60;;
16862;SDS011;52193;48.216;-1.698;2022-12-10T06:45:12;15.88;;;14.63;;
16862;SDS011;52193;48.216;-1.698;2022-12-10T06:47:39;16.65;;;15.35;;
16862;SDS011;52193;48.216;-1.698;2022-12-10T06:50:06;16.40;;;15.20;;
16862;SDS011;52193;48.216;-1.698;2022-12-10T06:52:33;17.67;;;16.08;;
16862;SDS011;52193;48.216;-1.698;2022-12-10T06:55:00;17.40;;;16.00;;
16862;SDS011;52193;48.216;-1.698;2022-12-10T06:57:28;17.60;;;16.20;;
16862;SDS011;52193;48.216;-1.698;2022-12-10T06:59:55;23.50;;;21.60;;
16862;SDS011;52193;48.216;-1.698;2022-12-10T07:02:22;21.30;;;19.13;;
16862;SDS011;52193;48.216;-1.698;2022-12-10T07:04:49;20.00;;;18.08;;
16862;SDS011;52193;48.216;-1.698;2022-12-10T07:07:16;21.17;;;19.20;;
16862;SDS011;52193;48.216;-1.698;2022-12-10T07:09:43;20.77;;;18.98;;
16862;SDS011;52193;48.216;-1.698;2022-12-10T07:12:10;22.15;;;20.25;;
16862;SDS011;52193;48.216;-1.698;2022-12-10T07:14:38;21.67;;;19.88;;
16862;SDS011;52193;48.216;-1.698;2022-12-10T07:17:05;21.08;;;19.27;;
16862;SDS011;52193;48.216;-1.698;2022-12-10T07:19:32;20.83;;;19.03;;
16862;SDS011;52193;48.216;-1.698;2022-12-10T07:21:59;20.07;;;18.30;;
16862;SDS011;52193;48.216;-1.698;2022-12-10T07:24:26;21.17;;;19.38;;
16862;SDS011;52193;48.216;-1.698;2022-12-10T07:26:53;21.17;;;19.30;;
16862;SDS011;52193;48.216;-1.698;2022-12-10T07:29:20;22.92;;;20.85;;
16862;SDS011;52193;48.216;-1.698;2022-12-10T07:31:49;19.23;;;17.52;;
16862;SDS011;52193;48.216;-1.698;2022-12-10T07:34:16;20.30;;;18.60;;
16862;SDS011;52193;48.216;-1.698;2022-12-10T07:36:44;20.80;;;19.10;;
16862;SDS011;52193;48.216;-1.698;2022-12-10T07:39:12;23.23;;;21.52;;
16862;SDS011;52193;48.216;-1.698;2022-12-10T07:41:42;20.33;;;18.73;;
16862;SDS011;52193;48.216;-1.698;2022-12-10T07:44:10;19.13;;;17.63;;
16862;SDS011;52193;48.216;-1.698;2022-12-10T07:46:39;19.80;;;18.13;;
16862;SDS011;52193;48.216;-1.698;2022-12-10T07:49:07;20.13;;;18.33;;
16862;SDS011;52193;48.216;-1.698;2022-12-10T07:51:34;21.48;;;19.38;;
16862;SDS011;52193;48.216;-1.698;2022-12-10T07:54:01;33.45;;;28.17;;
16862;SDS011;52193;48.216;-1.698;2022-12-10T07:56:29;28.10;;;24.57;;
16862;SDS011;52193;48.216;-1.698;2022-12-10T07:58:56;25.80;;;23.10;;
16862;SDS011;52193;48.216;-1.698;2022-12-10T08:01:23;33.05;;;29.65;;
16862;SDS011;52193;48.216;-1.698;2022-12-10T08:03:52;31.98;;;28.70;;
16862;SDS011;52193;48.216;-1.698;2022-12-10T08:06:23;28.05;;;25.17;;
16862;SDS011;52193;48.216;-1.698;2022-12-10T08:08:51;25.33;;;22.70;;
16862;SDS011;52193;48.216;-1.698;2022-12-10T08:11:19;24.17;;;21.97;;
16862;SDS011;52193;48.216;-1.698;2022-12-10T08:13:47;23.73;;;21.52;;
16862;SDS011;52193;48.216;-1.698;2022-12-10T08:16:15;26.15;;;23.83;;
16862;SDS011;52193;48.216;-1.698;2022-12-10T08:18:44;26.00;;;23.57;;
16862;SDS011;52193;48.216;-1.698;2022-12-10T08:21:12;25.58;;;23.17;;
16862;SDS011;52193;48.216;-1.698;2022-12-10T08:23:42;26.92;;;24.33;;
16862;SDS011;52193;48.216;-1.698;2022-12-10T08:26:11;26.60;;;24.20;;
16862;SDS011;52193;48.216;-1.698;2022-12-10T08:28:39;28.23;;;25.67;;
16862;SDS011;52193;48.216;-1.698;2022-12-10T08:31:07;28.50;;;26.08;;
16862;SDS011;52193;48.216;-1.698;2022-12-10T08:33:36;25.67;;;23.47;;
16862;SDS011;52193;48.216;-1.698;2022-12-10T08:36:05;24.48;;;22.25;;
16862;SDS011;52193;48.216;-1.698;2022-12-10T08:38:33;24.30;;;22.00;;
16862;SDS011;52193;48.216;-1.698;2022-12-10T08:41:06;25.35;;;23.02;;
16862;SDS011;52193;48.216;-1.698;2022-12-10T08:43:34;29.27;;;26.27;;
16862;SDS011;52193;48.216;-1.698;2022-12-10T08:46:01;30.70;;;27.73;;
16862;SDS011;52193;48.216;-1.698;2022-12-10T08:48:29;33.53;;;30.13;;
16862;SDS011;52193;48.216;-1.698;2022-12-10T08:50:56;33.38;;;30.08;;
16862;SDS011;52193;48.216;-1.698;2022-12-10T08:53:24;33.13;;;29.70;;
16862;SDS011;52193;48.216;-1.698;2022-12-10T08:55:51;30.20;;;27.50;;
16862;SDS011;52193;48.216;-1.698;2022-12-10T08:58:20;26.80;;;24.30;;
16862;SDS011;52193;48.216;-1.698;2022-12-10T09:00:47;23.13;;;21.08;;
16862;SDS011;52193;48.216;-1.698;2022-12-10T09:03:15;29.85;;;27.17;;
16862;SDS011;52193;48.216;-1.698;2022-12-10T09:05:43;27.02;;;24.42;;
16862;SDS011;52193;48.216;-1.698;2022-12-10T09:08:10;30.52;;;27.73;;
16862;SDS011;52193;48.216;-1.698;2022-12-10T09:10:37;31.10;;;27.95;;
16862;SDS011;52193;48.216;-1.698;2022-12-10T09:13:05;21.75;;;19.95;;
16862;SDS011;52193;48.216;-1.698;2022-12-10T09:15:34;26.23;;;24.02;;
16862;SDS011;52193;48.216;-1.698;2022-12-10T09:18:01;25.48;;;23.27;;
16862;SDS011;52193;48.216;-1.698;2022-12-10T09:20:28;27.45;;;24.98;;
16862;SDS011;52193;48.216;-1.698;2022-12-10T09:22:55;26.02;;;23.70;;
16862;SDS011;52193;48.216;-1.698;2022-12-10T09:25:22;23.27;;;21.27;;
16862;SDS011;52193;48.216;-1.698;2022-12-10T09:27:49;22.37;;;20.30;;
16862;SDS011;52193;48.216;-1.698;2022-12-10T09:30:16;45.78;;;41.17;;
16862;SDS011;52193;48.216;-1.698;2022-12-10T09:32:44;29.80;;;27.20;;
16862;SDS011;52193;48.216;-1.698;2022-12-10T09:35:11;29.45;;;26.95;;
16862;SDS011;52193;48.216;-1.698;2022-12-10T09:37:38;25.55;;;23.30;;
16862;SDS011;52193;48.216;-1.698;2022-12-10T09:40:05;45.33;;;31.70;;
16862;SDS011;52193;48.216;-1.698;2022-12-10T09:42:34;28.58;;;25.58;;
16862;SDS011;52193;48.216;-1.698;2022-12-10T09:45:14;27.05;;;24.58;;
16862;SDS011;52193;48.216;-1.698;2022-12-10T09:47:48;26.25;;;23.95;;
16862;SDS011;52193;48.216;-1.698;2022-12-10T09:50:26;25.70;;;23.40;;
16862;SDS011;52193;48.216;-1.698;2022-12-10T09:52:57;26.70;;;24.40;;
16862;SDS011;52193;48.216;-1.698;2022-12-10T09:55:29;28.40;;;25.80;;
16862;SDS011;52193;48.216;-1.698;2022-12-10T09:58:04;29.17;;;26.58;;
16862;SDS011;52193;48.216;-1.698;2022-12-10T10:00:34;29.75;;;26.70;;
16862;SDS011;52193;48.216;-1.698;2022-12-10T10:03:04;30.27;;;27.08;;
16862;SDS011;52193;48.216;-1.698;2022-12-10T10:05:33;28.70;;;25.90;;
16862;SDS011;52193;48.216;-1.698;2022-12-10T10:08:04;28.85;;;26.25;;
16862;SDS011;52193;48.216;-1.698;2022-12-10T10:10:38;28.45;;;25.85;;
16862;SDS011;52193;48.216;-1.698;2022-12-10T10:13:11;28.77;;;26.15;;
16862;SDS011;52193;48.216;-1.698;2022-12-10T10:15:43;30.00;;;27.15;;
16862;SDS011;52193;48.216;-1.698;2022-12-10T10:18:14;36.42;;;33.03;;
16862;SDS011;52193;48.216;-1.698;2022-12-10T10:20:48;26.52;;;24.13;;
16862;SDS011;52193;48.216;-1.698;2022-12-10T10:23:16;24.00;;;21.90;;
16862;SDS011;52193;48.216;-1.698;2022-12-10T10:25:43;20.95;;;19.10;;
16862;SDS011;52193;48.216;-1.698;2022-12-10T10:28:11;20.90;;;19.20;;
16862;SDS011;52193;48.216;-1.698;2022-12-10T10:30:41;22.15;;;20.13;;
16862;SDS011;52193;48.216;-1.698;2022-12-10T10:33:10;21.70;;;19.90;;
16862;SDS011;52193;48.216;-1.698;2022-12-10T10:35:44;20.00;;;18.40;;
16862;SDS011;52193;48.216;-1.698;2022-12-10T10:38:16;19.17;;;17.58;;
16862;SDS011;52193;48.216;-1.698;2022-12-10T10:40:49;19.00;;;17.40;;
16862;SDS011;52193;48.216;-1.698;2022-12-10T10:43:19;18.50;;;16.90;;
16862;SDS011;52193;48.216;-1.698;2022-12-10T10:45:50;21.10;;;19.15;;
16862;SDS011;52193;48.216;-1.698;2022-12-10T10:48:22;20.45;;;18.75;;
16862;SDS011;52193;48.216;-1.698;2022-12-10T10:50:51;19.42;;;17.92;;
16862;SDS011;52193;48.216;-1.698;2022-12-10T10:53:24;24.83;;;22.67;;
16862;SDS011;52193;48.216;-1.698;2022-12-10T10:55:54;23.33;;;21.42;;
16862;SDS011;52193;48.216;-1.698;2022-12-10T10:58:23;21.15;;;19.27;;
16862;SDS011;52193;48.216;-1.698;2022-12-10T11:00:58;20.83;;;19.02;;
16862;SDS011;52193;48.216;-1.698;2022-12-10T11:03:29;21.35;;;19.60;;
16862;SDS011;52193;48.216;-1.698;2022-12-10T11:05:58;22.27;;;20.48;;
16862;SDS011;52193;48.216;-1.698;2022-12-10T11:08:26;21.00;;;19.40;;
16862;SDS011;52193;48.216;-1.698;2022-12-10T11:10:58;21.02;;;19.33;;
16862;SDS011;52193;48.216;-1.698;2022-12-10T11:13:31;19.83;;;18.25;;
16862;SDS011;52193;48.216;-1.698;2022-12-10T11:16:01;20.20;;;18.60;;
16862;SDS011;52193;48.216;-1.698;2022-12-10T11:18:38;19.75;;;18.15;;
16862;SDS011;52193;48.216;-1.698;2022-12-10T11:21:09;20.83;;;19.00;;
16862;SDS011;52193;48.216;-1.698;2022-12-10T11:23:44;19.70;;;18.10;;
16862;SDS011;52193;48.216;-1.698;2022-12-10T11:26:21;20.60;;;18.90;;
16862;SDS011;52193;48.216;-1.698;2022-12-10T11:29:02;18.95;;;17.35;;
16862;SDS011;52193;48.216;-1.698;2022-12-10T11:31:43;19.38;;;17.75;;
16862;SDS011;52193;48.216;-1.698;2022-12-10T11:34:26;18.80;;;17.30;;
16862;SDS011;52193;48.216;-1.698;2022-12-10T11:37:03;19.23;;;17.40;;
16862;SDS011;52193;48.216;-1.698;2022-12-10T11:39:51;19.20;;;17.63;;
16862;SDS011;52193;48.216;-1.698;2022-12-10T11:42:31;18.35;;;16.95;;
16862;SDS011;52193;48.216;-1.698;2022-12-10T11:45:07;18.30;;;16.77;;
16862;SDS011;52193;48.216;-1.698;2022-12-10T11:47:44;17.90;;;16.50;;
16862;SDS011;52193;48.216;-1.698;2022-12-10T11:50:25;17.42;;;16.13;;
16862;SDS011;52193;48.216;-1.698;2022-12-10T11:53:08;16.33;;;15.00;;
16862;SDS011;52193;48.216;-1.698;2022-12-10T11:55:58;16.40;;;15.10;;
16862;SDS011;52193;48.216;-1.698;2022-12-10T11:58:39;15.82;;;14.63;;
16862;SDS011;52193;48.216;-1.698;2022-12-10T12:01:21;17.10;;;15.60;;
16862;SDS011;52193;48.216;-1.698;2022-12-10T12:04:10;18.92;;;17.20;;
16862;SDS011;52193;48.216;-1.698;2022-12-10T12:07:03;21.70;;;19.50;;
16862;SDS011;52193;48.216;-1.698;2022-12-10T12:09:54;21.42;;;19.27;;
16862;SDS011;52193;48.216;-1.698;2022-12-10T12:12:44;24.08;;;20.67;;
16862;SDS011;52193;48.216;-1.698;2022-12-10T12:15:22;25.42;;;22.00;;
16862;SDS011;52193;48.216;-1.698;2022-12-10T12:17:55;23.75;;;21.02;;
16862;SDS011;52193;48.216;-1.698;2022-12-10T12:20:27;20.05;;;17.95;;
16862;SDS011;52193;48.216;-1.698;2022-12-10T12:23:00;17.23;;;15.48;;
16862;SDS011;52193;48.216;-1.698;2022-12-10T12:25:36;13.20;;;12.07;;
16862;SDS011;52193;48.216;-1.698;2022-12-10T12:28:10;10.70;;;9.90;;
16862;SDS011;52193;48.216;-1.698;2022-12-10T12:30:41;9.65;;;8.85;;
16862;SDS011;52193;48.216;-1.698;2022-12-10T12:33:11;9.85;;;8.93;;
16862;SDS011;52193;48.216;-1.698;2022-12-10T12:35:44;8.50;;;7.90;;
16862;SDS011;52193;48.216;-1.698;2022-12-10T12:38:22;8.47;;;7.77;;
16862;SDS011;52193;48.216;-1.698;2022-12-10T12:40:56;9.10;;;8.40;;
16862;SDS011;52193;48.216;-1.698;2022-12-10T12:43:28;8.60;;;8.00;;
16862;SDS011;52193;48.216;-1.698;2022-12-10T12:46:09;8.90;;;8.30;;
16862;SDS011;52193;48.216;-1.698;2022-12-10T12:48:41;8.63;;;7.88;;
16862;SDS011;52193;48.216;-1.698;2022-12-10T12:51:17;8.18;;;7.50;;
16862;SDS011;52193;48.216;-1.698;2022-12-10T12:53:51;7.90;;;7.30;;
16862;SDS011;52193;48.216;-1.698;2022-12-10T12:56:21;8.40;;;7.70;;
16862;SDS011;52193;48.216;-1.698;2022-12-10T12:58:59;7.75;;;7.05;;
16862;SDS011;52193;48.216;-1.698;2022-12-10T13:01:36;8.90;;;8.10;;
16862;SDS011;52193;48.216;-1.698;2022-12-10T13:04:06;8.88;;;8.07;;
16862;SDS011;52193;48.216;-1.698;2022-12-10T13:06:35;8.37;;;7.67;;
16862;SDS011;52193;48.216;-1.698;2022-12-10T13:09:22;10.10;;;9.20;;
16862;SDS011;52193;48.216;-1.698;2022-12-10T13:15:00;9.50;;;8.60;;
16862;SDS011;52193;48.216;-1.698;2022-12-10T13:17:31;11.25;;;10.20;;
16862;SDS011;52193;48.216;-1.698;2022-12-10T13:22:57;11.25;;;10.25;;
16862;SDS011;52193;48.216;-1.698;2022-12-10T13:25:40;10.48;;;9.57;;
16862;SDS011;52193;48.216;-1.698;2022-12-10T13:28:25;10.93;;;10.00;;
16862;SDS011;52193;48.216;-1.698;2022-12-10T13:31:06;10.85;;;9.95;;
16862;SDS011;52193;48.216;-1.698;2022-12-10T13:33:46;12.23;;;11.20;;
16862;SDS011;52193;48.216;-1.698;2022-12-10T13:36:20;12.85;;;11.85;;
16862;SDS011;52193;48.216;-1.698;2022-12-10T13:38:57;11.27;;;10.38;;
16862;SDS011;52193;48.216;-1.698;2022-12-10T13:41:41;10.40;;;9.52;;
16862;SDS011;52193;48.216;-1.698;2022-12-10T13:44:46;10.73;;;9.73;;
16862;SDS011;52193;48.216;-1.698;2022-12-10T13:47:24;10.17;;;9.37;;
16862;SDS011;52193;48.216;-1.698;2022-12-10T13:49:54;11.00;;;10.10;;
16862;SDS011;52193;48.216;-1.698;2022-12-10T13:52:25;12.25;;;11.10;;
16862;SDS011;52193;48.216;-1.698;2022-12-10T13:55:13;9.43;;;8.73;;
16862;SDS011;52193;48.216;-1.698;2022-12-10T14:00:40;10.52;;;9.73;;
16862;SDS011;52193;48.216;-1.698;2022-12-10T14:06:21;8.20;;;7.60;;
16862;SDS011;52193;48.216;-1.698;2022-12-10T14:08:54;9.85;;;8.95;;
16862;SDS011;52193;48.216;-1.698;2022-12-10T14:11:26;8.70;;;8.00;;
16862;SDS011;52193;48.216;-1.698;2022-12-10T14:13:58;8.00;;;7.40;;
16862;SDS011;52193;48.216;-1.698;2022-12-10T14:16:27;9.43;;;8.73;;
16862;SDS011;52193;48.216;-1.698;2022-12-10T14:18:58;10.80;;;9.80;;
16862;SDS011;52193;48.216;-1.698;2022-12-10T14:21:31;9.32;;;8.63;;
16862;SDS011;52193;48.216;-1.698;2022-12-10T14:24:00;9.40;;;8.63;;
16862;SDS011;52193;48.216;-1.698;2022-12-10T14:26:29;10.25;;;9.30;;
16862;SDS011;52193;48.216;-1.698;2022-12-10T14:28:59;11.82;;;10.82;;
16862;SDS011;52193;48.216;-1.698;2022-12-10T14:31:28;9.23;;;8.43;;
16862;SDS011;52193;48.216;-1.698;2022-12-10T14:34:00;9.05;;;8.15;;
16862;SDS011;52193;48.216;-1.698;2022-12-10T14:36:30;8.97;;;8.13;;
16862;SDS011;52193;48.216;-1.698;2022-12-10T14:39:00;9.10;;;8.25;;
16862;SDS011;52193;48.216;-1.698;2022-12-10T14:41:28;8.73;;;7.97;;
16862;SDS011;52193;48.216;-1.698;2022-12-10T14:44:01;9.05;;;8.15;;
16862;SDS011;52193;48.216;-1.698;2022-12-10T14:46:30;8.77;;;8.05;;